createdAt,value
2018-06-21T00:02:24.416Z,23.10
2018-06-21T00:04:52.660Z,23.11
2018-06-21T00:07:20.877Z,23.13
2018-06-21T00:09:49.112Z,23.13
2018-06-21T00:12:17.329Z,23.12
2018-06-21T00:14:45.553Z,23.09
2018-06-21T00:17:13.785Z,23.08
2018-06-21T00:19:42.009Z,23.07
2018-06-21T00:22:10.250Z,23.07
2018-06-21T00:24:38.449Z,23.04
2018-06-21T00:27:06.773Z,23.02
2018-06-21T00:29:35.037Z,23.00
2018-06-21T00:32:03.280Z,22.97
2018-06-21T00:34:31.528Z,22.96
2018-06-21T00:36:59.773Z,22.94
2018-06-21T00:39:28.017Z,22.91
2018-06-21T00:41:56.241Z,22.92
2018-06-21T00:44:24.475Z,22.90
2018-06-21T00:46:52.708Z,22.91
2018-06-21T00:49:20.945Z,22.89
2018-06-21T00:51:49.168Z,22.86
2018-06-21T00:54:17.440Z,22.84
2018-06-21T00:56:45.657Z,22.81
2018-06-21T00:59:13.893Z,22.79
2018-06-21T01:01:42.086Z,22.77
2018-06-21T01:04:10.343Z,22.74
2018-06-21T01:06:38.584Z,22.68
2018-06-21T01:09:07.295Z,22.65
2018-06-21T01:11:35.529Z,22.62
2018-06-21T01:14:03.892Z,22.59
2018-06-21T01:16:32.154Z,22.55
2018-06-21T01:19:00.433Z,22.51
2018-06-21T01:21:28.688Z,22.49
2018-06-21T01:23:56.929Z,22.46
2018-06-21T01:26:25.145Z,22.43
2018-06-21T01:28:53.401Z,22.40
2018-06-21T01:31:21.711Z,22.35
2018-06-21T01:33:49.948Z,22.30
2018-06-21T01:36:18.160Z,22.28
2018-06-21T01:38:46.385Z,22.26
2018-06-21T01:41:14.601Z,22.23
2018-06-21T01:43:42.837Z,22.19
2018-06-21T01:46:11.133Z,22.14
2018-06-21T01:48:39.414Z,22.13
2018-06-21T01:51:07.641Z,22.14
2018-06-21T01:53:35.892Z,22.14
2018-06-21T01:56:04.137Z,22.13
2018-06-21T01:58:32.357Z,22.13
2018-06-21T02:01:00.604Z,22.12
2018-06-21T02:03:28.853Z,22.09
2018-06-21T02:05:57.049Z,22.05
2018-06-21T02:08:25.365Z,22.02
2018-06-21T02:10:53.626Z,22.00
2018-06-21T02:13:21.848Z,21.98
2018-06-21T02:15:50.053Z,21.91
2018-06-21T02:18:18.264Z,21.89
2018-06-21T02:20:46.481Z,21.88
2018-06-21T02:23:14.693Z,21.86
2018-06-21T02:25:42.936Z,21.84
2018-06-21T02:28:11.153Z,21.81
2018-06-21T02:30:39.378Z,21.80
2018-06-21T02:33:07.612Z,21.79
2018-06-21T02:35:35.856Z,21.79
2018-06-21T02:38:04.101Z,21.76
2018-06-21T02:40:32.314Z,21.72
2018-06-21T02:43:00.545Z,21.69
2018-06-21T02:45:28.783Z,21.67
2018-06-21T02:47:56.998Z,21.65
2018-06-21T02:50:25.245Z,21.62
2018-06-21T02:52:53.525Z,21.60
2018-06-21T02:55:21.758Z,21.57
2018-06-21T02:57:49.992Z,21.56
2018-06-21T03:00:18.301Z,21.54
2018-06-21T03:02:46.881Z,21.52
2018-06-21T03:05:15.113Z,21.49
2018-06-21T03:07:43.337Z,21.46
2018-06-21T03:10:11.628Z,21.42
2018-06-21T03:12:39.865Z,21.35
2018-06-21T03:15:08.333Z,21.35
2018-06-21T03:17:36.590Z,21.31
2018-06-21T03:20:04.806Z,21.27
2018-06-21T03:22:33.038Z,21.24
2018-06-21T03:25:01.297Z,21.22
2018-06-21T03:27:29.518Z,21.19
2018-06-21T03:29:57.765Z,21.16
2018-06-21T03:32:25.996Z,21.12
2018-06-21T03:34:54.220Z,21.11
2018-06-21T03:37:22.433Z,21.09
2018-06-21T03:39:50.681Z,21.05
2018-06-21T03:42:18.941Z,21.04
2018-06-21T03:44:47.177Z,21.05
2018-06-21T03:47:15.388Z,21.04
2018-06-21T03:49:43.664Z,21.02
2018-06-21T03:52:11.909Z,21.02
2018-06-21T03:54:40.112Z,21.01
2018-06-21T03:57:08.344Z,21.03
2018-06-21T03:59:36.561Z,21.04
2018-06-21T04:02:04.892Z,21.06
2018-06-21T04:04:33.112Z,21.05
2018-06-21T04:07:01.332Z,21.02
2018-06-21T04:09:29.557Z,21.06
2018-06-21T04:11:57.789Z,21.11
2018-06-21T04:14:26.117Z,21.17
2018-06-21T04:16:54.369Z,21.18
2018-06-21T04:19:22.632Z,21.20
2018-06-21T04:21:50.881Z,21.22
2018-06-21T04:24:19.096Z,21.19
2018-06-21T04:26:47.453Z,21.17
2018-06-21T04:29:16.025Z,21.17
2018-06-21T04:31:44.312Z,21.17
2018-06-21T04:34:12.529Z,21.16
2018-06-21T04:36:40.741Z,21.12
2018-06-21T04:39:09.640Z,21.10
2018-06-21T04:41:38.878Z,20.99
2018-06-21T04:44:07.153Z,20.96
2018-06-21T04:46:35.819Z,20.97
2018-06-21T04:49:04.081Z,20.98
2018-06-21T04:51:32.308Z,20.95
2018-06-21T04:54:00.521Z,20.95
2018-06-21T04:56:28.760Z,20.85
2018-06-21T04:58:57.016Z,20.83
2018-06-21T05:01:25.225Z,20.84
2018-06-21T05:03:53.468Z,20.83
2018-06-21T05:06:21.689Z,20.78
2018-06-21T05:08:49.909Z,20.75
2018-06-21T05:11:18.186Z,20.74
2018-06-21T05:13:46.405Z,20.69
2018-06-21T05:16:14.648Z,20.67
2018-06-21T05:18:42.885Z,20.67
2018-06-21T05:21:11.129Z,20.63
2018-06-21T05:23:39.404Z,20.55
2018-06-21T05:26:07.633Z,20.51
2018-06-21T05:28:35.904Z,20.49
2018-06-21T05:31:04.169Z,20.46
2018-06-21T05:33:32.591Z,20.45
2018-06-21T05:36:00.836Z,20.47
2018-06-21T05:38:29.053Z,20.31
2018-06-21T05:40:57.500Z,20.29
2018-06-21T05:43:25.745Z,20.26
2018-06-21T05:45:53.952Z,20.21
2018-06-21T05:48:22.268Z,20.24
2018-06-21T05:50:50.564Z,20.26
2018-06-21T05:53:18.865Z,20.24
2018-06-21T05:55:47.099Z,20.25
2018-06-21T05:58:15.369Z,20.22
2018-06-21T06:00:43.685Z,20.18
2018-06-21T06:03:11.969Z,20.12
2018-06-21T06:05:40.189Z,20.14
2018-06-21T06:08:08.401Z,20.05
2018-06-21T06:10:36.614Z,19.94
2018-06-21T06:13:04.876Z,19.93
2018-06-21T06:15:33.109Z,19.88
2018-06-21T06:18:01.305Z,19.85
2018-06-21T06:20:29.620Z,19.78
2018-06-21T06:22:57.888Z,19.69
2018-06-21T06:25:26.201Z,19.63
2018-06-21T06:27:54.529Z,19.60
2018-06-21T06:30:22.773Z,19.58
2018-06-21T06:32:51.076Z,19.57
2018-06-21T06:35:19.296Z,19.54
2018-06-21T06:37:47.560Z,19.56
2018-06-21T06:40:15.805Z,19.53
2018-06-21T06:42:44.104Z,19.58
2018-06-21T06:45:12.438Z,19.60
2018-06-21T06:47:40.657Z,19.60
2018-06-21T06:50:08.896Z,19.57
2018-06-21T06:52:37.132Z,19.55
2018-06-21T06:55:05.553Z,19.54
2018-06-21T06:57:33.816Z,19.54
2018-06-21T07:00:02.061Z,19.59
2018-06-21T07:02:30.297Z,19.62
2018-06-21T07:04:58.651Z,19.63
2018-06-21T07:07:26.862Z,19.63
2018-06-21T07:09:55.341Z,19.60
2018-06-21T07:12:23.573Z,19.60
2018-06-21T07:14:51.872Z,19.64
2018-06-21T07:17:20.172Z,19.62
2018-06-21T07:19:48.467Z,19.65
2018-06-21T07:22:16.657Z,19.65
2018-06-21T07:24:44.886Z,19.72
2018-06-21T07:27:13.142Z,19.75
2018-06-21T07:29:41.364Z,19.75
2018-06-21T07:32:09.651Z,19.76
2018-06-21T07:34:38.011Z,19.78
2018-06-21T07:37:06.224Z,19.79
2018-06-21T07:39:34.436Z,19.79
2018-06-21T07:42:02.706Z,19.82
2018-06-21T07:44:30.996Z,19.85
2018-06-21T07:46:59.302Z,19.90
2018-06-21T07:49:27.477Z,19.97
2018-06-21T07:51:55.745Z,20.02
2018-06-21T07:54:23.975Z,20.08
2018-06-21T07:56:52.194Z,20.17
2018-06-21T07:59:20.551Z,20.18
2018-06-21T08:01:48.773Z,20.20
2018-06-21T08:04:16.977Z,20.26
2018-06-21T08:06:45.205Z,20.26
2018-06-21T08:09:14.077Z,20.27
2018-06-21T08:11:42.497Z,20.28
2018-06-21T08:14:10.714Z,20.36
2018-06-21T08:16:40.217Z,20.38
2018-06-21T08:19:08.829Z,20.34
2018-06-21T08:21:37.213Z,20.25
2018-06-21T08:24:06.024Z,20.07
2018-06-21T08:26:34.252Z,20.09
2018-06-21T08:29:02.471Z,19.99
2018-06-21T08:31:30.710Z,19.92
2018-06-21T08:33:58.938Z,19.92
2018-06-21T08:36:27.189Z,19.91
2018-06-21T08:38:55.501Z,19.90
2018-06-21T08:41:24.069Z,19.95
2018-06-21T08:43:52.320Z,19.90
2018-06-21T08:46:20.528Z,19.89
2018-06-21T08:48:48.769Z,19.96
2018-06-21T08:51:17.000Z,20.05
2018-06-21T08:53:45.289Z,20.15
2018-06-21T08:56:13.500Z,20.23
2018-06-21T08:58:41.707Z,20.29
2018-06-21T09:01:09.938Z,20.28
2018-06-21T09:03:38.148Z,20.22
2018-06-21T09:06:06.420Z,20.17
2018-06-21T09:08:34.636Z,20.17
2018-06-21T09:11:02.861Z,20.11
2018-06-21T09:13:34.276Z,20.08
2018-06-21T09:16:03.312Z,20.06
2018-06-21T09:18:31.683Z,20.13
2018-06-21T09:20:59.978Z,20.17
2018-06-21T09:23:28.192Z,20.11
2018-06-21T09:25:56.423Z,20.05
2018-06-21T09:28:24.641Z,20.03
2018-06-21T09:30:52.870Z,19.90
2018-06-21T09:33:21.316Z,20.02
2018-06-21T09:35:49.510Z,20.08
2018-06-21T09:38:23.020Z,20.23
2018-06-21T09:40:56.520Z,20.31
2018-06-21T09:43:30.080Z,20.24
2018-06-21T09:46:03.532Z,20.16
2018-06-21T09:48:32.869Z,20.09
2018-06-21T09:51:01.628Z,19.92
2018-06-21T09:53:30.356Z,19.93
2018-06-21T09:55:59.758Z,19.95
2018-06-21T09:58:28.034Z,19.95
2018-06-21T10:01:02.789Z,19.90
2018-06-21T10:03:31.644Z,19.86
2018-06-21T10:05:59.861Z,19.82
2018-06-21T10:08:28.282Z,19.92
2018-06-21T10:10:56.518Z,20.07
2018-06-21T10:13:24.853Z,20.15
2018-06-21T10:15:53.430Z,20.21
2018-06-21T10:18:21.708Z,20.25
2018-06-21T10:20:50.332Z,20.26
2018-06-21T10:23:18.554Z,20.24
2018-06-21T10:25:46.832Z,20.25
2018-06-21T10:28:15.097Z,20.26
2018-06-21T10:30:43.441Z,20.25
2018-06-21T10:33:11.725Z,20.25
2018-06-21T10:35:39.944Z,20.32
2018-06-21T10:38:08.144Z,20.36
2018-06-21T10:40:36.396Z,20.40
2018-06-21T10:43:04.762Z,20.51
2018-06-21T10:45:33.084Z,20.45
2018-06-21T10:48:01.301Z,20.42
2018-06-21T10:50:29.561Z,20.51
2018-06-21T10:52:57.769Z,20.55
2018-06-21T10:55:25.987Z,20.68
2018-06-21T10:57:54.207Z,20.57
2018-06-21T11:00:22.482Z,20.57
2018-06-21T11:02:50.880Z,20.46
2018-06-21T11:05:19.167Z,20.60
2018-06-21T11:07:47.414Z,20.78
2018-06-21T11:10:15.665Z,21.05
2018-06-21T11:12:43.977Z,21.35
2018-06-21T11:15:12.204Z,21.61
2018-06-21T11:17:40.429Z,21.73
2018-06-21T11:20:08.669Z,21.89
2018-06-21T11:22:37.018Z,22.01
2018-06-21T11:25:05.301Z,22.19
2018-06-21T11:27:33.541Z,22.25
2018-06-21T11:30:01.785Z,22.31
2018-06-21T11:32:30.014Z,22.49
2018-06-21T11:34:58.262Z,22.56
2018-06-21T11:37:26.522Z,22.37
2018-06-21T11:39:54.753Z,22.67
2018-06-21T11:42:23.005Z,23.02
2018-06-21T11:44:51.300Z,23.00
2018-06-21T11:47:19.525Z,22.87
2018-06-21T11:49:47.730Z,23.01
2018-06-21T11:52:15.962Z,22.94
2018-06-21T11:54:44.197Z,23.09
2018-06-21T11:57:12.430Z,23.23
2018-06-21T11:59:40.641Z,23.35
2018-06-21T12:02:08.853Z,23.46
2018-06-21T12:04:37.080Z,23.66
2018-06-21T12:07:05.380Z,23.78
2018-06-21T12:09:33.600Z,23.96
2018-06-21T12:12:01.884Z,23.92
2018-06-21T12:14:30.204Z,23.84
2018-06-21T12:16:58.424Z,23.56
2018-06-21T12:19:26.629Z,23.53
2018-06-21T12:21:54.877Z,23.54
2018-06-21T12:24:23.175Z,23.54
2018-06-21T12:26:51.413Z,23.57
2018-06-21T12:29:19.633Z,23.61
2018-06-21T12:31:47.861Z,23.77
2018-06-21T12:34:16.120Z,24.03
2018-06-21T12:36:44.361Z,24.10
2018-06-21T12:39:12.585Z,24.07
2018-06-21T12:41:40.880Z,24.09
2018-06-21T12:44:09.158Z,24.16
2018-06-21T12:46:37.388Z,24.15
2018-06-21T12:49:05.658Z,24.09
2018-06-21T12:51:33.909Z,24.16
2018-06-21T12:54:02.141Z,24.11
2018-06-21T12:56:30.363Z,24.07
2018-06-21T12:58:58.592Z,24.00
2018-06-21T13:01:26.825Z,24.02
2018-06-21T13:03:55.128Z,24.12
2018-06-21T13:06:23.388Z,24.24
2018-06-21T13:09:02.925Z,24.11
2018-06-21T13:12:46.242Z,24.15
2018-06-21T13:15:14.429Z,23.83
2018-06-21T13:17:42.679Z,23.85
2018-06-21T13:20:10.897Z,23.91
2018-06-21T13:22:39.117Z,24.12
2018-06-21T13:25:07.392Z,24.26
2018-06-21T13:27:35.614Z,24.16
2018-06-21T13:30:07.391Z,24.15
2018-06-21T13:32:35.729Z,23.97
2018-06-21T13:35:04.037Z,24.01
2018-06-21T13:37:32.261Z,23.93
2018-06-21T13:40:00.520Z,23.72
2018-06-21T13:42:28.797Z,23.87
2018-06-21T13:44:57.084Z,23.87
2018-06-21T13:47:25.293Z,23.58
2018-06-21T13:49:53.520Z,23.31
2018-06-21T13:52:21.753Z,23.29
2018-06-21T13:54:49.977Z,23.57
2018-06-21T13:57:18.232Z,23.84
2018-06-21T13:59:46.553Z,24.05
2018-06-21T14:02:14.744Z,23.99
2018-06-21T14:04:42.973Z,23.60
2018-06-21T14:07:11.242Z,23.77
2018-06-21T14:09:39.464Z,23.49
2018-06-21T14:12:07.715Z,23.28
2018-06-21T14:14:35.946Z,23.45
2018-06-21T14:17:04.237Z,23.49
2018-06-21T14:19:32.487Z,23.61
2018-06-21T14:22:00.878Z,23.44
2018-06-21T14:24:29.457Z,23.58
2018-06-21T14:26:57.709Z,23.58
2018-06-21T14:29:26.204Z,23.37
2018-06-21T14:31:54.449Z,23.43
2018-06-21T14:34:22.808Z,23.52
2018-06-21T14:36:51.028Z,23.76
2018-06-21T14:39:19.261Z,23.95
2018-06-21T14:41:47.512Z,24.05
2018-06-21T14:44:15.792Z,24.06
2018-06-21T14:46:44.057Z,23.82
2018-06-21T14:49:12.265Z,23.17
2018-06-21T14:51:40.533Z,22.80
2018-06-21T14:54:08.836Z,22.60
2018-06-21T14:56:37.064Z,22.76
2018-06-21T14:59:05.332Z,22.71
2018-06-21T15:01:33.576Z,22.40
2018-06-21T15:04:01.849Z,22.31
2018-06-21T15:06:30.306Z,22.31
2018-06-21T15:08:58.790Z,22.43
2018-06-21T15:11:27.076Z,22.69
2018-06-21T15:13:55.303Z,22.93
2018-06-21T15:16:24.225Z,22.92
2018-06-21T15:18:52.476Z,22.90
2018-06-21T15:21:20.736Z,22.75
2018-06-21T15:23:49.037Z,22.61
2018-06-21T15:26:17.309Z,22.55
2018-06-21T15:28:45.560Z,22.69
2018-06-21T15:31:13.794Z,22.96
2018-06-21T15:33:42.085Z,23.21
2018-06-21T15:36:10.343Z,23.56
2018-06-21T15:38:38.589Z,23.74
2018-06-21T15:41:06.835Z,23.79
2018-06-21T15:43:35.108Z,23.91
2018-06-21T15:46:03.369Z,24.07
2018-06-21T15:48:31.640Z,24.22
2018-06-21T15:50:59.956Z,24.44
2018-06-21T15:53:28.403Z,24.19
2018-06-21T15:55:56.721Z,23.74
2018-06-21T15:58:24.996Z,23.45
2018-06-21T16:00:53.294Z,23.58
2018-06-21T16:03:21.641Z,24.37
2018-06-21T16:05:49.909Z,24.44
2018-06-21T16:08:18.149Z,23.65
2018-06-21T16:10:46.356Z,23.13
2018-06-21T16:13:15.978Z,22.78
2018-06-21T16:15:45.105Z,22.33
2018-06-21T16:18:13.388Z,22.10
2018-06-21T16:20:42.088Z,22.26
2018-06-21T16:23:10.605Z,22.12
2018-06-21T16:25:38.841Z,22.09
2018-06-21T16:28:07.297Z,22.12
2018-06-21T16:30:35.884Z,22.09
2018-06-21T16:33:04.289Z,22.52
2018-06-21T16:35:32.630Z,22.82
2018-06-21T16:38:00.867Z,23.11
2018-06-21T16:40:29.451Z,24.21
2018-06-21T16:42:58.352Z,24.84
2018-06-21T16:45:26.720Z,25.45
2018-06-21T16:47:54.969Z,25.46
2018-06-21T16:50:23.448Z,24.49
2018-06-21T16:52:51.690Z,24.77
2018-06-21T16:55:19.940Z,25.09
2018-06-21T16:57:48.146Z,24.60
2018-06-21T17:00:16.516Z,24.87
2018-06-21T17:02:44.789Z,25.31
2018-06-21T17:05:13.897Z,25.23
2018-06-21T17:07:42.222Z,24.83
2018-06-21T17:10:10.489Z,24.52
2018-06-21T17:12:38.933Z,23.79
2018-06-21T17:15:07.714Z,23.41
2018-06-21T17:17:36.411Z,23.28
2018-06-21T17:20:04.701Z,23.18
2018-06-21T17:22:32.930Z,22.86
2018-06-21T17:25:01.190Z,22.62
2018-06-21T17:27:29.425Z,22.02
2018-06-21T17:29:57.652Z,21.74
2018-06-21T17:32:25.927Z,21.31
2018-06-21T17:34:54.167Z,21.16
2018-06-21T17:37:22.454Z,21.27
2018-06-21T17:39:52.293Z,21.17
2018-06-21T17:42:20.622Z,20.96
2018-06-21T17:44:48.836Z,20.76
2018-06-21T17:47:17.091Z,20.61
2018-06-21T17:49:45.300Z,20.48
2018-06-21T17:52:13.565Z,20.34
2018-06-21T17:54:42.085Z,20.18
2018-06-21T17:57:10.353Z,19.96
2018-06-21T17:59:38.626Z,19.98
2018-06-21T18:02:06.879Z,19.97
2018-06-21T18:04:35.143Z,19.92
2018-06-21T18:07:03.373Z,19.94
2018-06-21T18:09:31.643Z,19.84
2018-06-21T18:11:59.937Z,19.90
2018-06-21T18:14:28.713Z,19.89
2018-06-21T18:16:57.015Z,19.79
2018-06-21T18:19:25.225Z,19.72
2018-06-21T18:21:53.516Z,19.76
2018-06-21T18:24:21.793Z,19.82
2018-06-21T18:26:50.061Z,19.81
2018-06-21T18:29:18.322Z,19.76
2018-06-21T18:31:46.551Z,19.68
2018-06-21T18:34:14.806Z,19.54
2018-06-21T18:36:43.049Z,19.47
2018-06-21T18:39:12.706Z,19.54
2018-06-21T18:41:41.605Z,19.51
2018-06-21T18:44:09.912Z,19.48
2018-06-21T18:46:38.248Z,19.44
2018-06-21T18:49:06.498Z,19.47
2018-06-21T18:51:34.926Z,19.42
2018-06-21T18:54:03.199Z,19.40
2018-06-21T18:56:31.484Z,19.36
2018-06-21T18:58:59.760Z,19.28
2018-06-21T19:01:28.049Z,19.19
2018-06-21T19:03:56.509Z,19.18
2018-06-21T19:06:30.084Z,19.23
2018-06-21T19:09:03.496Z,19.26
2018-06-21T19:11:37.105Z,19.31
2018-06-21T19:14:05.381Z,19.30
2018-06-21T19:16:33.749Z,19.32
2018-06-21T19:19:01.977Z,19.04
2018-06-21T19:21:30.254Z,19.07
2018-06-21T19:23:58.497Z,18.98
2018-06-21T19:26:26.759Z,19.00
2018-06-21T19:28:55.068Z,18.97
2018-06-21T19:31:23.297Z,18.94
2018-06-21T19:33:51.536Z,18.90
2018-06-21T19:36:20.157Z,18.86
2018-06-21T19:38:48.399Z,18.77
2018-06-21T19:41:16.677Z,18.74
2018-06-21T19:43:44.941Z,18.64
2018-06-21T19:46:13.196Z,18.61
2018-06-21T19:48:41.473Z,18.59
2018-06-21T19:51:09.705Z,18.60
2018-06-21T19:53:38.005Z,18.60
2018-06-21T19:56:06.297Z,18.53
2018-06-21T19:58:34.540Z,18.56
2018-06-21T20:01:02.801Z,18.44
2018-06-21T20:03:31.013Z,18.46
2018-06-21T20:05:59.261Z,18.33
2018-06-21T20:08:27.524Z,18.34
2018-06-21T20:11:00.913Z,18.36
2018-06-21T20:13:34.557Z,18.31
2018-06-21T20:16:02.846Z,18.24
2018-06-21T20:18:31.129Z,18.06
2018-06-21T20:20:59.337Z,18.08
2018-06-21T20:23:27.554Z,18.07
2018-06-21T20:25:55.795Z,18.09
2018-06-21T20:28:24.119Z,18.10
2018-06-21T20:30:52.356Z,18.07
2018-06-21T20:33:20.585Z,17.95
2018-06-21T20:35:48.813Z,17.89
2018-06-21T20:38:17.196Z,17.81
2018-06-21T20:40:45.381Z,17.84
2018-06-21T20:43:13.631Z,17.79
2018-06-21T20:45:41.933Z,17.78
2018-06-21T20:48:10.141Z,17.75
2018-06-21T20:50:38.356Z,17.71
2018-06-21T20:53:06.605Z,17.69
2018-06-21T20:55:34.849Z,17.67
2018-06-21T20:58:03.069Z,17.65
2018-06-21T21:00:31.295Z,17.58
2018-06-21T21:02:59.469Z,17.54
2018-06-21T21:05:28.593Z,17.50
2018-06-21T21:07:56.922Z,17.56
2018-06-21T21:10:25.097Z,17.49
2018-06-21T21:12:53.285Z,17.48
2018-06-21T21:15:21.466Z,17.46
2018-06-21T21:17:49.705Z,17.45
2018-06-21T21:20:17.880Z,17.35
2018-06-21T21:22:46.089Z,17.29
2018-06-21T21:25:14.389Z,17.19
2018-06-21T21:27:42.568Z,17.11
2018-06-21T21:30:10.939Z,17.06
2018-06-21T21:32:39.275Z,17.16
2018-06-21T21:35:07.515Z,17.21
2018-06-21T21:37:35.736Z,17.09
2018-06-21T21:40:05.332Z,17.08
2018-06-21T21:42:34.733Z,17.09
2018-06-21T21:45:03.039Z,17.05
2018-06-21T21:47:31.248Z,17.02
2018-06-21T21:49:59.465Z,16.98
2018-06-21T21:52:27.648Z,16.86
2018-06-21T21:54:55.835Z,16.88
2018-06-21T21:57:24.091Z,16.83
2018-06-21T21:59:52.281Z,16.78
2018-06-21T22:02:20.527Z,16.69
2018-06-21T22:04:48.776Z,16.64
2018-06-21T22:07:16.941Z,16.63
2018-06-21T22:09:45.605Z,16.52
2018-06-21T22:12:13.821Z,16.48
2018-06-21T22:14:42.141Z,16.43
2018-06-21T22:17:10.321Z,16.41
2018-06-21T22:19:38.532Z,16.48
2018-06-21T22:22:06.720Z,16.46
2018-06-21T22:24:34.997Z,16.47
2018-06-21T22:27:03.229Z,16.50
2018-06-21T22:29:31.397Z,16.47
2018-06-21T22:31:59.668Z,16.36
2018-06-21T22:34:27.840Z,16.40
2018-06-21T22:36:56.052Z,16.38
2018-06-21T22:39:24.272Z,16.33
2018-06-21T22:41:52.455Z,16.26
2018-06-21T22:44:20.651Z,16.27
2018-06-21T22:46:48.876Z,16.32
2018-06-21T22:49:17.092Z,16.39
2018-06-21T22:51:45.397Z,16.38
2018-06-21T22:54:13.612Z,16.38
2018-06-21T22:56:41.875Z,16.31
2018-06-21T22:59:10.089Z,16.28
2018-06-21T23:01:38.302Z,16.26
2018-06-21T23:04:06.506Z,16.22
2018-06-21T23:06:34.696Z,16.11
2018-06-21T23:09:02.921Z,16.00
2018-06-21T23:11:31.096Z,15.99
2018-06-21T23:13:59.300Z,16.00
2018-06-21T23:16:27.477Z,15.99
2018-06-21T23:19:07.037Z,15.89
2018-06-21T23:21:35.273Z,15.91
2018-06-21T23:24:03.477Z,15.92
2018-06-21T23:26:31.652Z,15.94
2018-06-21T23:28:59.861Z,16.00
2018-06-21T23:31:28.065Z,16.05
2018-06-21T23:33:56.305Z,16.06
2018-06-21T23:36:24.513Z,16.09
2018-06-21T23:38:52.720Z,16.03
2018-06-21T23:41:20.888Z,15.90
2018-06-21T23:43:49.157Z,15.92
2018-06-21T23:46:17.410Z,15.90
2018-06-21T23:48:45.613Z,15.84
2018-06-21T23:51:13.788Z,15.79
2018-06-21T23:53:42.021Z,15.75
2018-06-21T23:56:10.221Z,15.66
2018-06-21T23:58:38.420Z,15.60
